sensor_id;sensor_type;location;lat;lon;timestamp;pressure;altitude;pressure_sealevel;temperature;humidity
77311;BME280;66371;52.714;5.074;2023-08-24T00:00:16;102015.75;;;14.88;100.00
77311;BME280;66371;52.714;5.074;2023-08-24T00:02:42;102014.56;;;14.91;100.00
77311;BME280;66371;52.714;5.074;2023-08-24T00:05:07;102020.00;;;14.99;100.00
77311;BME280;66371;52.714;5.074;2023-08-24T00:07:34;102005.22;;;15.03;100.00
77311;BME280;66371;52.714;5.074;2023-08-24T00:09:59;102007.56;;;15.06;100.00
77311;BME280;66371;52.714;5.074;2023-08-24T00:12:24;102009.13;;;15.16;100.00
77311;BME280;66371;52.714;5.074;2023-08-24T00:14:51;102011.03;;;15.24;100.00
77311;BME280;66371;52.714;5.074;2023-08-24T00:17:17;101993.56;;;15.28;100.00
77311;BME280;66371;52.714;5.074;2023-08-24T00:19:42;101985.31;;;15.29;100.00
77311;BME280;66371;52.714;5.074;2023-08-24T00:22:08;101978.41;;;15.35;100.00
77311;BME280;66371;52.714;5.074;2023-08-24T00:24:35;101972.06;;;15.44;100.00
77311;BME280;66371;52.714;5.074;2023-08-24T00:27:01;101978.34;;;15.52;100.00
77311;BME280;66371;52.714;5.074;2023-08-24T00:29:31;101984.22;;;15.56;100.00
77311;BME280;66371;52.714;5.074;2023-08-24T00:31:57;101986.91;;;15.56;100.00
77311;BME280;66371;52.714;5.074;2023-08-24T00:34:23;101980.53;;;15.57;100.00
77311;BME280;66371;52.714;5.074;2023-08-24T00:36:48;101973.09;;;15.59;100.00
77311;BME280;66371;52.714;5.074;2023-08-24T00:39:13;101965.03;;;15.59;100.00
77311;BME280;66371;52.714;5.074;2023-08-24T00:41:39;101967.22;;;15.63;100.00
77311;BME280;66371;52.714;5.074;2023-08-24T00:44:06;101973.31;;;15.65;100.00
77311;BME280;66371;52.714;5.074;2023-08-24T00:46:33;101980.53;;;15.65;100.00
77311;BME280;66371;52.714;5.074;2023-08-24T00:48:59;101971.13;;;15.69;100.00
77311;BME280;66371;52.714;5.074;2023-08-24T00:51:24;101969.41;;;15.68;100.00
77311;BME280;66371;52.714;5.074;2023-08-24T00:53:50;101966.72;;;15.68;100.00
77311;BME280;66371;52.714;5.074;2023-08-24T00:56:16;101961.84;;;15.71;100.00
77311;BME280;66371;52.714;5.074;2023-08-24T00:58:42;101969.59;;;15.74;100.00
77311;BME280;66371;52.714;5.074;2023-08-24T01:03:45;101971.63;;;15.72;100.00
77311;BME280;66371;52.714;5.074;2023-08-24T01:06:10;101959.69;;;15.75;100.00
77311;BME280;66371;52.714;5.074;2023-08-24T01:08:36;101964.72;;;15.78;100.00
77311;BME280;66371;52.714;5.074;2023-08-24T01:11:28;101971.63;;;15.80;100.00
77311;BME280;66371;52.714;5.074;2023-08-24T01:14:04;101963.72;;;15.79;100.00
77311;BME280;66371;52.714;5.074;2023-08-24T01:16:34;101973.00;;;15.76;100.00
77311;BME280;66371;52.714;5.074;2023-08-24T01:19:03;101971.13;;;15.77;100.00
77311;BME280;66371;52.714;5.074;2023-08-24T01:21:32;101972.31;;;15.74;100.00
77311;BME280;66371;52.714;5.074;2023-08-24T01:24:10;101975.50;;;15.70;100.00
77311;BME280;66371;52.714;5.074;2023-08-24T01:26:37;101967.56;;;15.68;100.00
77311;BME280;66371;52.714;5.074;2023-08-24T01:29:04;101978.84;;;15.64;100.00
77311;BME280;66371;52.714;5.074;2023-08-24T01:31:30;101968.41;;;15.61;100.00
77311;BME280;66371;52.714;5.074;2023-08-24T01:33:55;101970.41;;;15.59;100.00
77311;BME280;66371;52.714;5.074;2023-08-24T01:36:21;101959.63;;;15.59;100.00
77311;BME280;66371;52.714;5.074;2023-08-24T01:38:53;101952.41;;;15.59;100.00
77311;BME280;66371;52.714;5.074;2023-08-24T01:41:28;101963.00;;;15.61;100.00
77311;BME280;66371;52.714;5.074;2023-08-24T01:43:54;101963.34;;;15.58;100.00
77311;BME280;66371;52.714;5.074;2023-08-24T01:46:22;101961.50;;;15.58;100.00
77311;BME280;66371;52.714;5.074;2023-08-24T01:48:47;101959.47;;;15.60;100.00
77311;BME280;66371;52.714;5.074;2023-08-24T01:51:14;101954.94;;;15.61;100.00
77311;BME280;66371;52.714;5.074;2023-08-24T01:53:40;101968.25;;;15.62;100.00
77311;BME280;66371;52.714;5.074;2023-08-24T01:56:13;101965.38;;;15.64;100.00
77311;BME280;66371;52.714;5.074;2023-08-24T01:58:40;101959.81;;;15.65;100.00
77311;BME280;66371;52.714;5.074;2023-08-24T02:01:07;101956.09;;;15.66;100.00
77311;BME280;66371;52.714;5.074;2023-08-24T02:03:36;101956.63;;;15.70;100.00
77311;BME280;66371;52.714;5.074;2023-08-24T02:06:03;101959.16;;;15.71;100.00
77311;BME280;66371;52.714;5.074;2023-08-24T02:08:30;101949.06;;;15.73;100.00
77311;BME280;66371;52.714;5.074;2023-08-24T02:10:55;101940.63;;;15.76;100.00
77311;BME280;66371;52.714;5.074;2023-08-24T02:13:21;101935.91;;;15.78;100.00
77311;BME280;66371;52.714;5.074;2023-08-24T02:15:46;101941.81;;;15.82;100.00
77311;BME280;66371;52.714;5.074;2023-08-24T02:18:12;101936.06;;;15.85;100.00
77311;BME280;66371;52.714;5.074;2023-08-24T02:20:38;101941.47;;;15.85;100.00
77311;BME280;66371;52.714;5.074;2023-08-24T02:23:04;101933.38;;;15.85;100.00
77311;BME280;66371;52.714;5.074;2023-08-24T02:25:29;101923.28;;;15.87;100.00
77311;BME280;66371;52.714;5.074;2023-08-24T02:27:55;101922.09;;;15.90;100.00
77311;BME280;66371;52.714;5.074;2023-08-24T02:30:20;101919.56;;;15.88;100.00
77311;BME280;66371;52.714;5.074;2023-08-24T02:32:45;101925.28;;;15.85;100.00
77311;BME280;66371;52.714;5.074;2023-08-24T02:35:11;101921.94;;;15.83;100.00
77311;BME280;66371;52.714;5.074;2023-08-24T02:37:36;101921.25;;;15.81;100.00
77311;BME280;66371;52.714;5.074;2023-08-24T02:40:02;101917.19;;;15.77;100.00
77311;BME280;66371;52.714;5.074;2023-08-24T02:42:30;101926.47;;;15.74;100.00
77311;BME280;66371;52.714;5.074;2023-08-24T02:44:57;101928.00;;;15.69;100.00
77311;BME280;66371;52.714;5.074;2023-08-24T02:47:22;101924.28;;;15.70;100.00
77311;BME280;66371;52.714;5.074;2023-08-24T02:49:47;101926.97;;;15.70;100.00
77311;BME280;66371;52.714;5.074;2023-08-24T02:52:13;101921.56;;;15.70;100.00
77311;BME280;66371;52.714;5.074;2023-08-24T02:54:38;101900.34;;;15.67;100.00
77311;BME280;66371;52.714;5.074;2023-08-24T02:57:04;101895.28;;;15.64;100.00
77311;BME280;66371;52.714;5.074;2023-08-24T02:59:29;101896.97;;;15.57;100.00
77311;BME280;66371;52.714;5.074;2023-08-24T03:01:55;101900.50;;;15.49;100.00
77311;BME280;66371;52.714;5.074;2023-08-24T03:04:20;101901.00;;;15.53;100.00
77311;BME280;66371;52.714;5.074;2023-08-24T03:06:46;101905.06;;;15.57;100.00
77311;BME280;66371;52.714;5.074;2023-08-24T03:09:12;101899.34;;;15.60;100.00
77311;BME280;66371;52.714;5.074;2023-08-24T03:11:37;101897.63;;;15.59;100.00
77311;BME280;66371;52.714;5.074;2023-08-24T03:14:03;101888.03;;;15.56;100.00
77311;BME280;66371;52.714;5.074;2023-08-24T03:16:29;101892.56;;;15.56;100.00
77311;BME280;66371;52.714;5.074;2023-08-24T03:18:54;101888.38;;;15.53;100.00
77311;BME280;66371;52.714;5.074;2023-08-24T03:21:20;101897.31;;;15.54;100.00
77311;BME280;66371;52.714;5.074;2023-08-24T03:23:45;101894.28;;;15.57;100.00
77311;BME280;66371;52.714;5.074;2023-08-24T03:26:10;101890.91;;;15.63;100.00
77311;BME280;66371;52.714;5.074;2023-08-24T03:28:36;101879.81;;;15.66;100.00
77311;BME280;66371;52.714;5.074;2023-08-24T03:31:02;101875.41;;;15.65;100.00
77311;BME280;66371;52.714;5.074;2023-08-24T03:33:27;101874.06;;;15.61;100.00
77311;BME280;66371;52.714;5.074;2023-08-24T03:35:53;101868.16;;;15.57;100.00
77311;BME280;66371;52.714;5.074;2023-08-24T03:38:19;101866.81;;;15.53;100.00
77311;BME280;66371;52.714;5.074;2023-08-24T03:40:44;101869.69;;;15.52;100.00
77311;BME280;66371;52.714;5.074;2023-08-24T03:43:10;101862.63;;;15.51;100.00
77311;BME280;66371;52.714;5.074;2023-08-24T03:45:36;101861.94;;;15.49;100.00
77311;BME280;66371;52.714;5.074;2023-08-24T03:48:01;101863.28;;;15.45;100.00
77311;BME280;66371;52.714;5.074;2023-08-24T03:50:27;101848.28;;;15.42;100.00
77311;BME280;66371;52.714;5.074;2023-08-24T03:52:54;101853.81;;;15.41;100.00
77311;BME280;66371;52.714;5.074;2023-08-24T03:55:20;101856.13;;;15.36;100.00
77311;BME280;66371;52.714;5.074;2023-08-24T03:57:45;101862.53;;;15.35;100.00
77311;BME280;66371;52.714;5.074;2023-08-24T04:00:11;101857.00;;;15.36;100.00
77311;BME280;66371;52.714;5.074;2023-08-24T04:02:41;101862.72;;;15.33;100.00
77311;BME280;66371;52.714;5.074;2023-08-24T04:05:06;101854.63;;;15.33;100.00
77311;BME280;66371;52.714;5.074;2023-08-24T04:07:32;101853.28;;;15.29;100.00
77311;BME280;66371;52.714;5.074;2023-08-24T04:10:01;101851.41;;;15.30;100.00
77311;BME280;66371;52.714;5.074;2023-08-24T04:12:27;101859.16;;;15.33;100.00
77311;BME280;66371;52.714;5.074;2023-08-24T04:14:52;101874.69;;;15.31;100.00
77311;BME280;66371;52.714;5.074;2023-08-24T04:17:17;101874.34;;;15.34;100.00
77311;BME280;66371;52.714;5.074;2023-08-24T04:19:43;101874.41;;;15.42;100.00
77311;BME280;66371;52.714;5.074;2023-08-24T04:22:08;101873.03;;;15.46;100.00
77311;BME280;66371;52.714;5.074;2023-08-24T04:24:34;101876.75;;;15.45;100.00
77311;BME280;66371;52.714;5.074;2023-08-24T04:26:59;101869.81;;;15.42;100.00
77311;BME280;66371;52.714;5.074;2023-08-24T04:29:24;101880.44;;;15.44;100.00
77311;BME280;66371;52.714;5.074;2023-08-24T04:31:50;101880.78;;;15.41;100.00
77311;BME280;66371;52.714;5.074;2023-08-24T04:34:15;101880.38;;;15.36;100.00
77311;BME280;66371;52.714;5.074;2023-08-24T04:36:41;101878.41;;;15.38;100.00
77311;BME280;66371;52.714;5.074;2023-08-24T04:39:06;101874.69;;;15.39;100.00
77311;BME280;66371;52.714;5.074;2023-08-24T04:41:31;101874.41;;;15.42;100.00
77311;BME280;66371;52.714;5.074;2023-08-24T04:43:58;101869.16;;;15.40;100.00
77311;BME280;66371;52.714;5.074;2023-08-24T04:46:23;101859.22;;;15.41;100.00
77311;BME280;66371;52.714;5.074;2023-08-24T04:48:49;101871.88;;;15.40;100.00
77311;BME280;66371;52.714;5.074;2023-08-24T04:51:14;101861.56;;;15.44;100.00
77311;BME280;66371;52.714;5.074;2023-08-24T04:53:39;101866.78;;;15.45;100.00
77311;BME280;66371;52.714;5.074;2023-08-24T04:56:05;101865.81;;;15.46;100.00
77311;BME280;66371;52.714;5.074;2023-08-24T04:58:33;101859.56;;;15.46;100.00
77311;BME280;66371;52.714;5.074;2023-08-24T05:00:58;101851.47;;;15.46;100.00
77311;BME280;66371;52.714;5.074;2023-08-24T05:03:23;101855.84;;;15.47;100.00
77311;BME280;66371;52.714;5.074;2023-08-24T05:05:49;101852.00;;;15.49;100.00
77311;BME280;66371;52.714;5.074;2023-08-24T05:08:14;101856.03;;;15.69;100.00
77311;BME280;66371;52.714;5.074;2023-08-24T05:10:40;101844.56;;;15.83;100.00
77311;BME280;66371;52.714;5.074;2023-08-24T05:13:06;101845.91;;;16.04;100.00
77311;BME280;66371;52.714;5.074;2023-08-24T05:15:31;101839.28;;;16.30;100.00
77311;BME280;66371;52.714;5.074;2023-08-24T05:17:57;101834.16;;;16.59;100.00
77311;BME280;66371;52.714;5.074;2023-08-24T05:20:25;101826.31;;;16.72;100.00
77311;BME280;66371;52.714;5.074;2023-08-24T05:22:50;101823.81;;;16.63;100.00
77311;BME280;66371;52.714;5.074;2023-08-24T05:25:16;101827.44;;;16.39;100.00
77311;BME280;66371;52.714;5.074;2023-08-24T05:27:42;101819.69;;;16.28;100.00
77311;BME280;66371;52.714;5.074;2023-08-24T05:30:07;101825.44;;;16.25;100.00
77311;BME280;66371;52.714;5.074;2023-08-24T05:32:34;101823.91;;;16.31;100.00
77311;BME280;66371;52.714;5.074;2023-08-24T05:35:04;101824.91;;;16.38;100.00
77311;BME280;66371;52.714;5.074;2023-08-24T05:37:29;101828.59;;;16.53;100.00
77311;BME280;66371;52.714;5.074;2023-08-24T05:39:55;101831.38;;;16.67;100.00
77311;BME280;66371;52.714;5.074;2023-08-24T05:42:20;101829.50;;;16.76;100.00
77311;BME280;66371;52.714;5.074;2023-08-24T05:44:46;101828.91;;;16.88;100.00
77311;BME280;66371;52.714;5.074;2023-08-24T05:47:11;101818.38;;;17.01;100.00
77311;BME280;66371;52.714;5.074;2023-08-24T05:49:37;101827.03;;;17.19;100.00
77311;BME280;66371;52.714;5.074;2023-08-24T05:52:02;101816.78;;;17.37;100.00
77311;BME280;66371;52.714;5.074;2023-08-24T05:54:28;101813.13;;;17.53;100.00
77311;BME280;66371;52.714;5.074;2023-08-24T05:56:53;101812.97;;;17.69;100.00
77311;BME280;66371;52.714;5.074;2023-08-24T05:59:19;101805.22;;;17.89;100.00
77311;BME280;66371;52.714;5.074;2023-08-24T06:01:44;101789.84;;;18.04;100.00
77311;BME280;66371;52.714;5.074;2023-08-24T06:04:09;101790.13;;;18.23;100.00
77311;BME280;66371;52.714;5.074;2023-08-24T06:06:35;101782.00;;;18.38;100.00
77311;BME280;66371;52.714;5.074;2023-08-24T06:09:01;101777.22;;;18.54;100.00
77311;BME280;66371;52.714;5.074;2023-08-24T06:11:30;101773.22;;;18.65;100.00
77311;BME280;66371;52.714;5.074;2023-08-24T06:13:55;101778.41;;;18.81;100.00
77311;BME280;66371;52.714;5.074;2023-08-24T06:16:20;101776.88;;;18.93;100.00
77311;BME280;66371;52.714;5.074;2023-08-24T06:18:46;101766.59;;;19.09;100.00
77311;BME280;66371;52.714;5.074;2023-08-24T06:21:12;101760.88;;;19.19;100.00
77311;BME280;66371;52.714;5.074;2023-08-24T06:23:38;101746.25;;;19.13;100.00
77311;BME280;66371;52.714;5.074;2023-08-24T06:26:03;101742.41;;;19.08;100.00
77311;BME280;66371;52.714;5.074;2023-08-24T06:28:30;101735.44;;;19.20;100.00
77311;BME280;66371;52.714;5.074;2023-08-24T06:30:55;101718.47;;;19.33;100.00
77311;BME280;66371;52.714;5.074;2023-08-24T06:33:20;101716.53;;;19.48;100.00
77311;BME280;66371;52.714;5.074;2023-08-24T06:35:46;101718.50;;;19.60;100.00
77311;BME280;66371;52.714;5.074;2023-08-24T06:38:13;101704.44;;;19.78;100.00
77311;BME280;66371;52.714;5.074;2023-08-24T06:40:38;101700.16;;;19.96;100.00
77311;BME280;66371;52.714;5.074;2023-08-24T06:43:04;101693.09;;;20.08;100.00
77311;BME280;66371;52.714;5.074;2023-08-24T06:45:29;101703.03;;;20.22;100.00
77311;BME280;66371;52.714;5.074;2023-08-24T06:47:55;101700.16;;;20.30;100.00
77311;BME280;66371;52.714;5.074;2023-08-24T06:50:20;101702.88;;;20.30;100.00
77311;BME280;66371;52.714;5.074;2023-08-24T06:52:46;101701.44;;;20.41;100.00
77311;BME280;66371;52.714;5.074;2023-08-24T06:55:11;101694.59;;;20.51;100.00
77311;BME280;66371;52.714;5.074;2023-08-24T06:57:38;101698.34;;;20.50;100.00
77311;BME280;66371;52.714;5.074;2023-08-24T07:00:04;101696.88;;;20.54;100.00
77311;BME280;66371;52.714;5.074;2023-08-24T07:02:35;101685.88;;;20.69;100.00
77311;BME280;66371;52.714;5.074;2023-08-24T07:05:01;101687.13;;;20.73;100.00
77311;BME280;66371;52.714;5.074;2023-08-24T07:07:26;101681.69;;;20.73;100.00
77311;BME280;66371;52.714;5.074;2023-08-24T07:09:51;101678.16;;;20.85;100.00
77311;BME280;66371;52.714;5.074;2023-08-24T07:12:17;101681.69;;;20.86;100.00
77311;BME280;66371;52.714;5.074;2023-08-24T07:14:42;101677.78;;;21.02;100.00
77311;BME280;66371;52.714;5.074;2023-08-24T07:17:08;101669.66;;;21.15;100.00
77311;BME280;66371;52.714;5.074;2023-08-24T07:19:33;101666.91;;;21.28;100.00
77311;BME280;66371;52.714;5.074;2023-08-24T07:21:59;101665.44;;;21.19;100.00
77311;BME280;66371;52.714;5.074;2023-08-24T07:24:24;101675.47;;;21.18;100.00
77311;BME280;66371;52.714;5.074;2023-08-24T07:26:54;101681.78;;;21.19;100.00
77311;BME280;66371;52.714;5.074;2023-08-24T07:29:20;101680.28;;;21.23;100.00
77311;BME280;66371;52.714;5.074;2023-08-24T07:31:45;101684.50;;;21.19;100.00
77311;BME280;66371;52.714;5.074;2023-08-24T07:34:11;101675.44;;;20.92;100.00
77311;BME280;66371;52.714;5.074;2023-08-24T07:36:36;101665.19;;;20.87;100.00
77311;BME280;66371;52.714;5.074;2023-08-24T07:39:02;101649.09;;;20.79;100.00
77311;BME280;66371;52.714;5.074;2023-08-24T07:41:27;101633.63;;;20.73;100.00
77311;BME280;66371;52.714;5.074;2023-08-24T07:43:53;101626.28;;;20.80;100.00
77311;BME280;66371;52.714;5.074;2023-08-24T07:46:21;101625.94;;;20.97;100.00
77311;BME280;66371;52.714;5.074;2023-08-24T07:48:46;101621.72;;;21.20;100.00
77311;BME280;66371;52.714;5.074;2023-08-24T07:51:12;101624.41;;;21.46;100.00
77311;BME280;66371;52.714;5.074;2023-08-24T07:53:40;101653.06;;;21.62;100.00
77311;BME280;66371;52.714;5.074;2023-08-24T07:56:05;101644.25;;;21.73;100.00
77311;BME280;66371;52.714;5.074;2023-08-24T07:58:31;101644.47;;;21.84;100.00
77311;BME280;66371;52.714;5.074;2023-08-24T08:00:58;101649.16;;;22.15;100.00
77311;BME280;66371;52.714;5.074;2023-08-24T08:03:24;101643.84;;;22.33;100.00
77311;BME280;66371;52.714;5.074;2023-08-24T08:05:49;101649.75;;;22.23;100.00
77311;BME280;66371;52.714;5.074;2023-08-24T08:08:15;101650.03;;;22.09;100.00
77311;BME280;66371;52.714;5.074;2023-08-24T08:10:40;101632.69;;;21.97;100.00
77311;BME280;66371;52.714;5.074;2023-08-24T08:13:07;101628.97;;;21.85;100.00
77311;BME280;66371;52.714;5.074;2023-08-24T08:15:33;101625.19;;;21.79;100.00
77311;BME280;66371;52.714;5.074;2023-08-24T08:17:58;101623.56;;;21.59;100.00
77311;BME280;66371;52.714;5.074;2023-08-24T08:20:23;101615.81;;;21.56;100.00
77311;BME280;66371;52.714;5.074;2023-08-24T08:22:49;101628.16;;;21.52;100.00
77311;BME280;66371;52.714;5.074;2023-08-24T08:25:15;101634.66;;;21.44;100.00
77311;BME280;66371;52.714;5.074;2023-08-24T08:27:43;101634.69;;;21.38;100.00
77311;BME280;66371;52.714;5.074;2023-08-24T08:30:09;101629.47;;;21.36;100.00
77311;BME280;66371;52.714;5.074;2023-08-24T08:32:34;101629.69;;;21.35;100.00
77311;BME280;66371;52.714;5.074;2023-08-24T08:35:00;101634.28;;;21.28;100.00
77311;BME280;66371;52.714;5.074;2023-08-24T08:37:26;101636.56;;;21.24;100.00
77311;BME280;66371;52.714;5.074;2023-08-24T08:39:52;101643.50;;;21.07;100.00
77311;BME280;66371;52.714;5.074;2023-08-24T08:42:17;101624.03;;;20.97;100.00
77311;BME280;66371;52.714;5.074;2023-08-24T08:44:45;101615.22;;;20.82;100.00
77311;BME280;66371;52.714;5.074;2023-08-24T08:47:13;101608.28;;;20.66;100.00
77311;BME280;66371;52.714;5.074;2023-08-24T08:49:39;101598.66;;;20.57;100.00
77311;BME280;66371;52.714;5.074;2023-08-24T08:52:08;101612.47;;;20.56;100.00
77311;BME280;66371;52.714;5.074;2023-08-24T08:54:34;101614.34;;;20.49;100.00
77311;BME280;66371;52.714;5.074;2023-08-24T08:57:00;101607.41;;;20.33;100.00
77311;BME280;66371;52.714;5.074;2023-08-24T08:59:27;101607.59;;;20.25;100.00
77311;BME280;66371;52.714;5.074;2023-08-24T09:01:57;101605.91;;;20.18;100.00
77311;BME280;66371;52.714;5.074;2023-08-24T09:04:27;101604.81;;;20.12;100.00
77311;BME280;66371;52.714;5.074;2023-08-24T09:06:52;101598.50;;;20.05;100.00
77311;BME280;66371;52.714;5.074;2023-08-24T09:09:18;101601.63;;;19.96;100.00
77311;BME280;66371;52.714;5.074;2023-08-24T09:11:43;101608.06;;;19.95;100.00
77311;BME280;66371;52.714;5.074;2023-08-24T09:14:12;101593.41;;;19.83;100.00
77311;BME280;66371;52.714;5.074;2023-08-24T09:16:38;101599.03;;;19.81;100.00
77311;BME280;66371;52.714;5.074;2023-08-24T09:19:05;101585.00;;;19.71;100.00
77311;BME280;66371;52.714;5.074;2023-08-24T09:21:36;101575.78;;;19.66;100.00
77311;BME280;66371;52.714;5.074;2023-08-24T09:24:01;101570.75;;;19.56;100.00
77311;BME280;66371;52.714;5.074;2023-08-24T09:26:36;101564.69;;;19.54;100.00
77311;BME280;66371;52.714;5.074;2023-08-24T09:29:15;101584.31;;;19.56;100.00
77311;BME280;66371;52.714;5.074;2023-08-24T09:31:41;101583.47;;;19.56;100.00
77311;BME280;66371;52.714;5.074;2023-08-24T09:34:09;101577.84;;;19.57;100.00
77311;BME280;66371;52.714;5.074;2023-08-24T09:36:36;101571.78;;;19.55;100.00
77311;BME280;66371;52.714;5.074;2023-08-24T09:39:03;101566.94;;;19.51;100.00
77311;BME280;66371;52.714;5.074;2023-08-24T09:41:44;101567.59;;;19.53;100.00
77311;BME280;66371;52.714;5.074;2023-08-24T09:44:10;101561.97;;;19.54;100.00
77311;BME280;66371;52.714;5.074;2023-08-24T09:46:37;101561.97;;;19.54;100.00
77311;BME280;66371;52.714;5.074;2023-08-24T09:49:07;101570.09;;;19.54;100.00
77311;BME280;66371;52.714;5.074;2023-08-24T09:51:36;101568.84;;;19.57;100.00
77311;BME280;66371;52.714;5.074;2023-08-24T09:54:05;101573.47;;;19.56;100.00
77311;BME280;66371;52.714;5.074;2023-08-24T09:56:37;101580.41;;;19.65;100.00
77311;BME280;66371;52.714;5.074;2023-08-24T10:01:44;101578.50;;;19.66;100.00
77311;BME280;66371;52.714;5.074;2023-08-24T10:04:12;101576.03;;;19.71;100.00
77311;BME280;66371;52.714;5.074;2023-08-24T10:06:38;101586.88;;;19.71;100.00
77311;BME280;66371;52.714;5.074;2023-08-24T10:09:07;101589.34;;;19.66;100.00
77311;BME280;66371;52.714;5.074;2023-08-24T10:11:36;101600.09;;;19.46;100.00
77311;BME280;66371;52.714;5.074;2023-08-24T10:14:26;101594.47;;;19.41;100.00
77311;BME280;66371;52.714;5.074;2023-08-24T10:16:54;101596.88;;;19.30;100.00
77311;BME280;66371;52.714;5.074;2023-08-24T10:19:21;101603.34;;;19.35;100.00
77311;BME280;66371;52.714;5.074;2023-08-24T10:21:48;101611.19;;;19.23;100.00
77311;BME280;66371;52.714;5.074;2023-08-24T10:24:16;101605.50;;;19.18;100.00
77311;BME280;66371;52.714;5.074;2023-08-24T10:26:42;101617.19;;;19.19;100.00
77311;BME280;66371;52.714;5.074;2023-08-24T10:29:07;101623.88;;;19.23;100.00
77311;BME280;66371;52.714;5.074;2023-08-24T10:31:34;101624.53;;;19.25;100.00
77311;BME280;66371;52.714;5.074;2023-08-24T10:34:01;101625.72;;;19.16;100.00
77311;BME280;66371;52.714;5.074;2023-08-24T10:36:27;101623.59;;;19.11;100.00
77311;BME280;66371;52.714;5.074;2023-08-24T10:38:56;101622.97;;;19.09;100.00
77311;BME280;66371;52.714;5.074;2023-08-24T10:41:27;101603.16;;;19.09;100.00
77311;BME280;66371;52.714;5.074;2023-08-24T10:43:52;101598.16;;;19.12;100.00
77311;BME280;66371;52.714;5.074;2023-08-24T10:46:34;101595.75;;;19.24;100.00
77311;BME280;66371;52.714;5.074;2023-08-24T10:49:00;101600.81;;;19.27;100.00
77311;BME280;66371;52.714;5.074;2023-08-24T10:51:25;101609.19;;;19.11;100.00
77311;BME280;66371;52.714;5.074;2023-08-24T10:54:02;101625.63;;;19.03;100.00
77311;BME280;66371;52.714;5.074;2023-08-24T10:56:37;101647.56;;;18.87;100.00
77311;BME280;66371;52.714;5.074;2023-08-24T10:59:15;101630.63;;;18.78;100.00
77311;BME280;66371;52.714;5.074;2023-08-24T11:01:42;101623.28;;;18.72;100.00
77311;BME280;66371;52.714;5.074;2023-08-24T11:04:08;101636.16;;;18.70;100.00
77311;BME280;66371;52.714;5.074;2023-08-24T11:06:33;101640.31;;;18.66;100.00
77311;BME280;66371;52.714;5.074;2023-08-24T11:09:06;101637.41;;;18.68;100.00
77311;BME280;66371;52.714;5.074;2023-08-24T11:11:38;101643.25;;;18.71;100.00
77311;BME280;66371;52.714;5.074;2023-08-24T11:14:18;101641.38;;;18.72;100.00
77311;BME280;66371;52.714;5.074;2023-08-24T11:17:19;101644.47;;;18.69;100.00
77311;BME280;66371;52.714;5.074;2023-08-24T11:19:50;101640.50;;;18.65;100.00
77311;BME280;66371;52.714;5.074;2023-08-24T11:22:17;101646.69;;;18.59;100.00
77311;BME280;66371;52.714;5.074;2023-08-24T11:24:44;101617.72;;;18.59;100.00
77311;BME280;66371;52.714;5.074;2023-08-24T11:27:09;101618.25;;;18.69;100.00
77311;BME280;66371;52.714;5.074;2023-08-24T11:29:35;101613.72;;;18.76;100.00
77311;BME280;66371;52.714;5.074;2023-08-24T11:32:00;101611.06;;;18.83;100.00
77311;BME280;66371;52.714;5.074;2023-08-24T11:34:27;101603.34;;;18.80;100.00
77311;BME280;66371;52.714;5.074;2023-08-24T11:36:53;101591.00;;;18.77;100.00
77311;BME280;66371;52.714;5.074;2023-08-24T11:39:20;101577.53;;;18.84;100.00
77311;BME280;66371;52.714;5.074;2023-08-24T11:42:03;101561.31;;;18.90;100.00
77311;BME280;66371;52.714;5.074;2023-08-24T11:44:29;101555.91;;;18.90;100.00
77311;BME280;66371;52.714;5.074;2023-08-24T11:46:58;101541.75;;;18.95;100.00
77311;BME280;66371;52.714;5.074;2023-08-24T11:49:24;101538.06;;;19.02;100.00
77311;BME280;66371;52.714;5.074;2023-08-24T11:51:50;101537.28;;;19.08;100.00
77311;BME280;66371;52.714;5.074;2023-08-24T11:54:18;101526.28;;;19.16;100.00
77311;BME280;66371;52.714;5.074;2023-08-24T11:56:44;101524.22;;;19.25;100.00
77311;BME280;66371;52.714;5.074;2023-08-24T11:59:15;101520.34;;;19.34;100.00
77311;BME280;66371;52.714;5.074;2023-08-24T12:01:42;101508.69;;;19.40;100.00
77311;BME280;66371;52.714;5.074;2023-08-24T12:04:08;101493.06;;;19.42;100.00
77311;BME280;66371;52.714;5.074;2023-08-24T12:06:33;101487.66;;;19.42;100.00
77311;BME280;66371;52.714;5.074;2023-08-24T12:08:59;101490.41;;;19.49;100.00
77311;BME280;66371;52.714;5.074;2023-08-24T12:11:25;101488.31;;;19.51;100.00
77311;BME280;66371;52.714;5.074;2023-08-24T12:13:53;101474.13;;;19.55;100.00
77311;BME280;66371;52.714;5.074;2023-08-24T12:16:20;101458.50;;;19.57;100.00
77311;BME280;66371;52.714;5.074;2023-08-24T12:19:07;101440.78;;;19.68;100.00
77311;BME280;66371;52.714;5.074;2023-08-24T12:21:32;101437.44;;;19.66;100.00
77311;BME280;66371;52.714;5.074;2023-08-24T12:24:07;101438.34;;;19.79;100.00
77311;BME280;66371;52.714;5.074;2023-08-24T12:26:34;101432.09;;;19.98;100.00
77311;BME280;66371;52.714;5.074;2023-08-24T12:29:02;101417.94;;;20.16;100.00
77311;BME280;66371;52.714;5.074;2023-08-24T12:31:32;101408.91;;;20.48;100.00
77311;BME280;66371;52.714;5.074;2023-08-24T12:34:06;101402.66;;;20.60;100.00
77311;BME280;66371;52.714;5.074;2023-08-24T12:36:37;101395.34;;;20.67;100.00
77311;BME280;66371;52.714;5.074;2023-08-24T12:39:05;101395.66;;;20.90;100.00
77311;BME280;66371;52.714;5.074;2023-08-24T12:41:32;101398.16;;;21.05;100.00
77311;BME280;66371;52.714;5.074;2023-08-24T12:43:57;101398.53;;;21.15;100.00